sensor_id;sensor_type;location;lat;lon;timestamp;P1;durP1;ratioP1;P2;durP2;ratioP2
20731;SDS011;10527;52.124;5.196;2023-10-09T00:00:33;22.38;;;15.40;;
20731;SDS011;10527;52.124;5.196;2023-10-09T00:03:04;21.80;;;14.27;;
20731;SDS011;10527;52.124;5.196;2023-10-09T00:05:33;21.67;;;13.82;;
20731;SDS011;10527;52.124;5.196;2023-10-09T00:08:06;22.13;;;13.88;;
20731;SDS011;10527;52.124;5.196;2023-10-09T00:10:35;19.75;;;13.30;;
20731;SDS011;10527;52.124;5.196;2023-10-09T00:13:11;19.38;;;12.05;;
20731;SDS011;10527;52.124;5.196;2023-10-09T00:15:39;20.38;;;12.27;;
20731;SDS011;10527;52.124;5.196;2023-10-09T00:18:07;19.45;;;12.57;;
20731;SDS011;10527;52.124;5.196;2023-10-09T00:20:38;18.15;;;12.68;;
20731;SDS011;10527;52.124;5.196;2023-10-09T00:23:09;17.60;;;12.02;;
20731;SDS011;10527;52.124;5.196;2023-10-09T00:25:50;16.65;;;11.95;;
20731;SDS011;10527;52.124;5.196;2023-10-09T00:28:39;15.93;;;11.32;;
20731;SDS011;10527;52.124;5.196;2023-10-09T00:31:14;19.77;;;11.35;;
20731;SDS011;10527;52.124;5.196;2023-10-09T00:33:42;17.75;;;11.80;;
20731;SDS011;10527;52.124;5.196;2023-10-09T00:36:10;17.77;;;11.77;;
20731;SDS011;10527;52.124;5.196;2023-10-09T00:38:40;18.40;;;12.95;;
20731;SDS011;10527;52.124;5.196;2023-10-09T00:41:13;17.25;;;11.88;;
20731;SDS011;10527;52.124;5.196;2023-10-09T00:43:46;17.13;;;12.38;;
20731;SDS011;10527;52.124;5.196;2023-10-09T00:46:19;16.30;;;11.75;;
20731;SDS011;10527;52.124;5.196;2023-10-09T00:48:48;16.98;;;11.55;;
20731;SDS011;10527;52.124;5.196;2023-10-09T00:51:27;15.25;;;10.77;;
20731;SDS011;10527;52.124;5.196;2023-10-09T00:54:02;15.40;;;11.50;;
20731;SDS011;10527;52.124;5.196;2023-10-09T00:56:38;18.55;;;12.38;;
20731;SDS011;10527;52.124;5.196;2023-10-09T00:59:10;15.73;;;11.52;;
20731;SDS011;10527;52.124;5.196;2023-10-09T01:01:42;15.93;;;11.45;;
20731;SDS011;10527;52.124;5.196;2023-10-09T01:04:30;18.42;;;12.07;;
20731;SDS011;10527;52.124;5.196;2023-10-09T01:07:03;18.23;;;12.13;;
20731;SDS011;10527;52.124;5.196;2023-10-09T01:09:46;17.20;;;12.40;;
20731;SDS011;10527;52.124;5.196;2023-10-09T01:12:17;18.10;;;12.57;;
20731;SDS011;10527;52.124;5.196;2023-10-09T01:14:45;15.60;;;11.90;;
20731;SDS011;10527;52.124;5.196;2023-10-09T01:17:22;14.05;;;11.75;;
20731;SDS011;10527;52.124;5.196;2023-10-09T01:20:03;17.27;;;13.32;;
20731;SDS011;10527;52.124;5.196;2023-10-09T01:22:31;14.95;;;11.90;;
20731;SDS011;10527;52.124;5.196;2023-10-09T01:24:59;14.95;;;11.68;;
20731;SDS011;10527;52.124;5.196;2023-10-09T01:27:26;17.67;;;11.63;;
20731;SDS011;10527;52.124;5.196;2023-10-09T01:29:59;16.70;;;11.98;;
20731;SDS011;10527;52.124;5.196;2023-10-09T01:32:27;15.38;;;11.55;;
20731;SDS011;10527;52.124;5.196;2023-10-09T01:34:54;17.85;;;11.55;;
20731;SDS011;10527;52.124;5.196;2023-10-09T01:37:24;16.00;;;11.63;;
20731;SDS011;10527;52.124;5.196;2023-10-09T01:39:56;15.38;;;11.45;;
20731;SDS011;10527;52.124;5.196;2023-10-09T01:42:26;14.55;;;11.80;;
20731;SDS011;10527;52.124;5.196;2023-10-09T01:44:56;17.02;;;11.23;;
20731;SDS011;10527;52.124;5.196;2023-10-09T01:47:54;14.57;;;10.77;;
20731;SDS011;10527;52.124;5.196;2023-10-09T01:50:22;14.57;;;10.43;;
20731;SDS011;10527;52.124;5.196;2023-10-09T01:53:01;14.57;;;10.00;;
20731;SDS011;10527;52.124;5.196;2023-10-09T01:55:32;13.43;;;9.77;;
20731;SDS011;10527;52.124;5.196;2023-10-09T01:58:03;14.80;;;10.23;;
20731;SDS011;10527;52.124;5.196;2023-10-09T02:00:32;16.60;;;10.23;;
20731;SDS011;10527;52.124;5.196;2023-10-09T02:03:10;16.02;;;10.32;;
20731;SDS011;10527;52.124;5.196;2023-10-09T02:05:50;12.35;;;9.85;;
20731;SDS011;10527;52.124;5.196;2023-10-09T02:08:20;13.43;;;9.45;;
20731;SDS011;10527;52.124;5.196;2023-10-09T02:10:54;12.90;;;9.60;;
20731;SDS011;10527;52.124;5.196;2023-10-09T02:13:22;14.80;;;9.18;;
20731;SDS011;10527;52.124;5.196;2023-10-09T02:15:56;15.15;;;9.20;;
20731;SDS011;10527;52.124;5.196;2023-10-09T02:18:40;11.15;;;8.23;;
20731;SDS011;10527;52.124;5.196;2023-10-09T02:21:20;11.00;;;8.48;;
20731;SDS011;10527;52.124;5.196;2023-10-09T02:24:02;11.77;;;8.30;;
20731;SDS011;10527;52.124;5.196;2023-10-09T02:26:50;15.00;;;8.27;;
20731;SDS011;10527;52.124;5.196;2023-10-09T02:29:17;10.50;;;7.53;;
20731;SDS011;10527;52.124;5.196;2023-10-09T02:31:44;12.20;;;7.70;;
20731;SDS011;10527;52.124;5.196;2023-10-09T02:34:18;11.40;;;7.30;;
20731;SDS011;10527;52.124;5.196;2023-10-09T02:36:49;9.45;;;7.20;;
20731;SDS011;10527;52.124;5.196;2023-10-09T02:39:24;12.25;;;8.05;;
20731;SDS011;10527;52.124;5.196;2023-10-09T02:41:53;10.93;;;7.20;;
20731;SDS011;10527;52.124;5.196;2023-10-09T02:44:29;11.13;;;7.38;;
20731;SDS011;10527;52.124;5.196;2023-10-09T02:47:00;10.75;;;7.97;;
20731;SDS011;10527;52.124;5.196;2023-10-09T02:49:31;10.93;;;7.65;;
20731;SDS011;10527;52.124;5.196;2023-10-09T02:52:00;12.90;;;8.25;;
20731;SDS011;10527;52.124;5.196;2023-10-09T02:54:33;14.77;;;8.02;;
20731;SDS011;10527;52.124;5.196;2023-10-09T02:57:02;15.18;;;8.90;;
20731;SDS011;10527;52.124;5.196;2023-10-09T02:59:34;13.32;;;8.43;;
20731;SDS011;10527;52.124;5.196;2023-10-09T03:02:07;10.10;;;7.57;;
20731;SDS011;10527;52.124;5.196;2023-10-09T03:04:34;14.25;;;8.32;;
20731;SDS011;10527;52.124;5.196;2023-10-09T03:07:04;15.60;;;8.35;;
20731;SDS011;10527;52.124;5.196;2023-10-09T03:09:33;14.23;;;8.15;;
20731;SDS011;10527;52.124;5.196;2023-10-09T03:12:03;13.88;;;7.90;;
20731;SDS011;10527;52.124;5.196;2023-10-09T03:14:34;13.27;;;8.38;;
20731;SDS011;10527;52.124;5.196;2023-10-09T03:17:07;11.32;;;7.47;;
20731;SDS011;10527;52.124;5.196;2023-10-09T03:19:39;11.68;;;7.50;;
20731;SDS011;10527;52.124;5.196;2023-10-09T03:22:10;12.75;;;7.53;;
20731;SDS011;10527;52.124;5.196;2023-10-09T03:24:38;11.75;;;7.43;;
20731;SDS011;10527;52.124;5.196;2023-10-09T03:27:15;12.95;;;7.57;;
20731;SDS011;10527;52.124;5.196;2023-10-09T03:29:43;10.05;;;6.70;;
20731;SDS011;10527;52.124;5.196;2023-10-09T03:32:16;11.13;;;7.90;;
20731;SDS011;10527;52.124;5.196;2023-10-09T03:34:45;10.52;;;6.53;;
20731;SDS011;10527;52.124;5.196;2023-10-09T03:37:15;10.85;;;6.80;;
20731;SDS011;10527;52.124;5.196;2023-10-09T03:40:03;12.30;;;6.90;;
20731;SDS011;10527;52.124;5.196;2023-10-09T03:42:47;10.75;;;6.47;;
20731;SDS011;10527;52.124;5.196;2023-10-09T03:45:22;11.38;;;8.05;;
20731;SDS011;10527;52.124;5.196;2023-10-09T03:48:08;12.75;;;7.55;;
20731;SDS011;10527;52.124;5.196;2023-10-09T03:50:44;11.88;;;7.90;;
20731;SDS011;10527;52.124;5.196;2023-10-09T03:53:37;13.30;;;7.15;;
20731;SDS011;10527;52.124;5.196;2023-10-09T03:56:08;14.30;;;8.27;;
20731;SDS011;10527;52.124;5.196;2023-10-09T03:59:08;14.68;;;8.57;;
20731;SDS011;10527;52.124;5.196;2023-10-09T04:01:42;10.35;;;7.00;;
20731;SDS011;10527;52.124;5.196;2023-10-09T04:04:14;11.60;;;7.55;;
20731;SDS011;10527;52.124;5.196;2023-10-09T04:06:43;12.93;;;6.97;;
20731;SDS011;10527;52.124;5.196;2023-10-09T04:09:12;17.58;;;7.93;;
20731;SDS011;10527;52.124;5.196;2023-10-09T04:11:46;12.02;;;7.60;;
20731;SDS011;10527;52.124;5.196;2023-10-09T04:14:18;9.43;;;6.18;;
20731;SDS011;10527;52.124;5.196;2023-10-09T04:16:52;12.70;;;7.63;;
20731;SDS011;10527;52.124;5.196;2023-10-09T04:19:29;10.38;;;7.57;;
20731;SDS011;10527;52.124;5.196;2023-10-09T04:22:14;11.52;;;7.18;;
20731;SDS011;10527;52.124;5.196;2023-10-09T04:24:53;11.68;;;6.78;;
20731;SDS011;10527;52.124;5.196;2023-10-09T04:27:21;9.82;;;6.97;;
20731;SDS011;10527;52.124;5.196;2023-10-09T04:29:54;9.95;;;6.90;;
20731;SDS011;10527;52.124;5.196;2023-10-09T04:32:23;12.43;;;7.50;;
20731;SDS011;10527;52.124;5.196;2023-10-09T04:34:51;11.25;;;6.93;;
20731;SDS011;10527;52.124;5.196;2023-10-09T04:37:44;11.93;;;6.65;;
20731;SDS011;10527;52.124;5.196;2023-10-09T04:40:18;13.25;;;7.53;;
20731;SDS011;10527;52.124;5.196;2023-10-09T04:43:04;8.68;;;6.75;;
20731;SDS011;10527;52.124;5.196;2023-10-09T04:45:49;10.25;;;6.30;;
20731;SDS011;10527;52.124;5.196;2023-10-09T04:48:33;9.93;;;6.82;;
20731;SDS011;10527;52.124;5.196;2023-10-09T04:51:14;10.10;;;7.53;;
20731;SDS011;10527;52.124;5.196;2023-10-09T04:53:48;10.10;;;6.72;;
20731;SDS011;10527;52.124;5.196;2023-10-09T04:56:42;8.25;;;6.18;;
20731;SDS011;10527;52.124;5.196;2023-10-09T04:59:21;9.32;;;6.15;;
20731;SDS011;10527;52.124;5.196;2023-10-09T05:01:52;12.02;;;6.45;;
20731;SDS011;10527;52.124;5.196;2023-10-09T05:04:25;8.25;;;6.18;;
20731;SDS011;10527;52.124;5.196;2023-10-09T05:07:06;8.73;;;6.03;;
20731;SDS011;10527;52.124;5.196;2023-10-09T05:10:11;13.88;;;6.47;;
20731;SDS011;10527;52.124;5.196;2023-10-09T05:12:54;10.95;;;6.15;;
20731;SDS011;10527;52.124;5.196;2023-10-09T05:15:24;10.90;;;6.03;;
20731;SDS011;10527;52.124;5.196;2023-10-09T05:17:56;11.43;;;6.70;;
20731;SDS011;10527;52.124;5.196;2023-10-09T05:20:30;11.20;;;7.07;;
20731;SDS011;10527;52.124;5.196;2023-10-09T05:23:18;10.02;;;7.07;;
20731;SDS011;10527;52.124;5.196;2023-10-09T05:25:52;13.75;;;6.70;;
20731;SDS011;10527;52.124;5.196;2023-10-09T05:28:19;14.55;;;7.07;;
20731;SDS011;10527;52.124;5.196;2023-10-09T05:30:58;11.13;;;5.93;;
20731;SDS011;10527;52.124;5.196;2023-10-09T05:33:35;11.02;;;5.93;;
20731;SDS011;10527;52.124;5.196;2023-10-09T05:36:07;10.52;;;6.47;;
20731;SDS011;10527;52.124;5.196;2023-10-09T05:38:47;13.50;;;7.07;;
20731;SDS011;10527;52.124;5.196;2023-10-09T05:41:42;15.50;;;6.95;;
20731;SDS011;10527;52.124;5.196;2023-10-09T05:44:26;13.38;;;6.28;;
20731;SDS011;10527;52.124;5.196;2023-10-09T05:47:11;12.60;;;5.93;;
20731;SDS011;10527;52.124;5.196;2023-10-09T05:49:58;8.77;;;6.25;;
20731;SDS011;10527;52.124;5.196;2023-10-09T05:52:55;8.52;;;5.88;;
20731;SDS011;10527;52.124;5.196;2023-10-09T05:55:29;10.00;;;5.97;;
20731;SDS011;10527;52.124;5.196;2023-10-09T05:58:03;12.93;;;6.13;;
20731;SDS011;10527;52.124;5.196;2023-10-09T06:00:50;10.43;;;5.75;;
20731;SDS011;10527;52.124;5.196;2023-10-09T06:03:36;10.45;;;5.85;;
20731;SDS011;10527;52.124;5.196;2023-10-09T06:06:20;8.73;;;5.28;;
20731;SDS011;10527;52.124;5.196;2023-10-09T06:09:09;11.32;;;5.93;;
20731;SDS011;10527;52.124;5.196;2023-10-09T06:11:46;10.63;;;5.32;;
20731;SDS011;10527;52.124;5.196;2023-10-09T06:14:18;8.93;;;5.75;;
20731;SDS011;10527;52.124;5.196;2023-10-09T06:17:09;11.68;;;5.72;;
20731;SDS011;10527;52.124;5.196;2023-10-09T06:19:39;10.13;;;6.00;;
20731;SDS011;10527;52.124;5.196;2023-10-09T06:22:10;11.57;;;4.75;;
20731;SDS011;10527;52.124;5.196;2023-10-09T06:25:03;11.13;;;5.72;;
20731;SDS011;10527;52.124;5.196;2023-10-09T06:27:38;9.20;;;5.32;;
20731;SDS011;10527;52.124;5.196;2023-10-09T06:30:08;9.13;;;5.35;;
20731;SDS011;10527;52.124;5.196;2023-10-09T06:32:41;9.63;;;5.30;;
20731;SDS011;10527;52.124;5.196;2023-10-09T06:35:24;9.15;;;5.35;;
20731;SDS011;10527;52.124;5.196;2023-10-09T06:38:03;10.10;;;5.07;;
20731;SDS011;10527;52.124;5.196;2023-10-09T06:40:48;9.75;;;5.65;;
20731;SDS011;10527;52.124;5.196;2023-10-09T06:43:32;8.75;;;5.13;;
20731;SDS011;10527;52.124;5.196;2023-10-09T06:46:14;9.32;;;4.90;;
20731;SDS011;10527;52.124;5.196;2023-10-09T06:48:48;9.38;;;5.32;;
20731;SDS011;10527;52.124;5.196;2023-10-09T06:51:22;11.43;;;5.38;;
20731;SDS011;10527;52.124;5.196;2023-10-09T06:53:56;10.63;;;5.40;;
20731;SDS011;10527;52.124;5.196;2023-10-09T06:56:34;8.52;;;5.60;;
20731;SDS011;10527;52.124;5.196;2023-10-09T06:59:05;9.20;;;5.45;;
20731;SDS011;10527;52.124;5.196;2023-10-09T07:01:55;10.98;;;6.07;;
20731;SDS011;10527;52.124;5.196;2023-10-09T07:04:49;10.27;;;5.47;;
20731;SDS011;10527;52.124;5.196;2023-10-09T07:07:21;10.95;;;6.03;;
20731;SDS011;10527;52.124;5.196;2023-10-09T07:09:51;7.93;;;5.28;;
20731;SDS011;10527;52.124;5.196;2023-10-09T07:12:37;10.30;;;5.18;;
20731;SDS011;10527;52.124;5.196;2023-10-09T07:15:09;11.30;;;5.60;;
20731;SDS011;10527;52.124;5.196;2023-10-09T07:17:37;9.27;;;5.35;;
20731;SDS011;10527;52.124;5.196;2023-10-09T07:20:05;10.77;;;5.85;;
20731;SDS011;10527;52.124;5.196;2023-10-09T07:22:40;11.80;;;5.97;;
20731;SDS011;10527;52.124;5.196;2023-10-09T07:25:28;7.78;;;5.20;;
20731;SDS011;10527;52.124;5.196;2023-10-09T07:28:21;8.43;;;5.07;;
20731;SDS011;10527;52.124;5.196;2023-10-09T07:30:57;7.80;;;5.28;;
20731;SDS011;10527;52.124;5.196;2023-10-09T07:33:24;7.90;;;4.95;;
20731;SDS011;10527;52.124;5.196;2023-10-09T07:36:03;10.80;;;5.85;;
20731;SDS011;10527;52.124;5.196;2023-10-09T07:38:34;8.65;;;5.10;;
20731;SDS011;10527;52.124;5.196;2023-10-09T07:41:02;7.53;;;4.63;;
20731;SDS011;10527;52.124;5.196;2023-10-09T07:43:33;9.60;;;5.18;;
20731;SDS011;10527;52.124;5.196;2023-10-09T07:46:06;11.10;;;5.13;;
20731;SDS011;10527;52.124;5.196;2023-10-09T07:51:51;10.02;;;5.25;;
20731;SDS011;10527;52.124;5.196;2023-10-09T07:54:19;10.07;;;5.38;;
20731;SDS011;10527;52.124;5.196;2023-10-09T07:56:59;8.35;;;5.45;;
20731;SDS011;10527;52.124;5.196;2023-10-09T07:59:35;8.70;;;5.18;;
20731;SDS011;10527;52.124;5.196;2023-10-09T08:02:07;8.00;;;5.55;;
20731;SDS011;10527;52.124;5.196;2023-10-09T08:04:40;10.95;;;5.60;;
20731;SDS011;10527;52.124;5.196;2023-10-09T08:07:19;12.25;;;6.50;;
20731;SDS011;10527;52.124;5.196;2023-10-09T08:10:20;9.68;;;5.13;;
20731;SDS011;10527;52.124;5.196;2023-10-09T08:12:47;10.75;;;5.65;;
20731;SDS011;10527;52.124;5.196;2023-10-09T08:15:17;11.38;;;5.95;;
20731;SDS011;10527;52.124;5.196;2023-10-09T08:17:46;11.15;;;5.18;;
20731;SDS011;10527;52.124;5.196;2023-10-09T08:20:23;8.63;;;6.00;;
20731;SDS011;10527;52.124;5.196;2023-10-09T08:22:54;11.38;;;5.28;;
20731;SDS011;10527;52.124;5.196;2023-10-09T08:25:25;10.43;;;5.93;;
20731;SDS011;10527;52.124;5.196;2023-10-09T08:27:54;9.93;;;5.30;;
20731;SDS011;10527;52.124;5.196;2023-10-09T08:30:24;10.55;;;6.38;;
20731;SDS011;10527;52.124;5.196;2023-10-09T08:32:52;8.38;;;5.65;;
20731;SDS011;10527;52.124;5.196;2023-10-09T08:35:33;9.73;;;5.68;;
20731;SDS011;10527;52.124;5.196;2023-10-09T08:38:04;9.18;;;5.85;;
20731;SDS011;10527;52.124;5.196;2023-10-09T08:40:37;10.32;;;5.68;;
20731;SDS011;10527;52.124;5.196;2023-10-09T08:43:18;10.82;;;5.85;;
20731;SDS011;10527;52.124;5.196;2023-10-09T08:45:54;9.93;;;5.68;;
20731;SDS011;10527;52.124;5.196;2023-10-09T08:48:29;11.50;;;5.50;;
20731;SDS011;10527;52.124;5.196;2023-10-09T08:50:58;12.40;;;6.72;;
20731;SDS011;10527;52.124;5.196;2023-10-09T08:53:33;9.68;;;5.93;;
20731;SDS011;10527;52.124;5.196;2023-10-09T08:56:01;10.02;;;5.57;;
20731;SDS011;10527;52.124;5.196;2023-10-09T08:58:30;13.45;;;5.95;;
20731;SDS011;10527;52.124;5.196;2023-10-09T09:01:03;9.77;;;6.00;;
20731;SDS011;10527;52.124;5.196;2023-10-09T09:03:41;8.15;;;5.32;;
20731;SDS011;10527;52.124;5.196;2023-10-09T09:06:11;10.02;;;4.80;;
20731;SDS011;10527;52.124;5.196;2023-10-09T09:08:42;10.10;;;5.20;;
20731;SDS011;10527;52.124;5.196;2023-10-09T09:11:16;13.20;;;5.28;;
20731;SDS011;10527;52.124;5.196;2023-10-09T09:16:23;7.72;;;5.10;;
20731;SDS011;10527;52.124;5.196;2023-10-09T09:18:58;9.27;;;4.50;;
20731;SDS011;10527;52.124;5.196;2023-10-09T09:21:39;9.02;;;4.70;;
20731;SDS011;10527;52.124;5.196;2023-10-09T09:24:11;11.90;;;5.25;;
20731;SDS011;10527;52.124;5.196;2023-10-09T09:26:54;8.18;;;4.70;;
20731;SDS011;10527;52.124;5.196;2023-10-09T09:32:06;10.85;;;5.05;;
20731;SDS011;10527;52.124;5.196;2023-10-09T09:34:45;10.52;;;4.25;;
20731;SDS011;10527;52.124;5.196;2023-10-09T09:37:18;12.00;;;5.15;;
20731;SDS011;10527;52.124;5.196;2023-10-09T09:39:47;10.90;;;4.85;;
20731;SDS011;10527;52.124;5.196;2023-10-09T09:42:22;10.95;;;4.47;;
20731;SDS011;10527;52.124;5.196;2023-10-09T09:44:54;8.55;;;3.85;;
20731;SDS011;10527;52.124;5.196;2023-10-09T09:47:23;8.27;;;4.63;;
20731;SDS011;10527;52.124;5.196;2023-10-09T09:49:55;12.70;;;5.40;;
20731;SDS011;10527;52.124;5.196;2023-10-09T09:52:28;8.05;;;4.60;;
20731;SDS011;10527;52.124;5.196;2023-10-09T09:55:09;9.40;;;3.95;;
20731;SDS011;10527;52.124;5.196;2023-10-09T09:57:49;9.98;;;4.20;;
20731;SDS011;10527;52.124;5.196;2023-10-09T10:00:26;8.55;;;4.15;;
20731;SDS011;10527;52.124;5.196;2023-10-09T10:03:10;9.25;;;4.70;;
20731;SDS011;10527;52.124;5.196;2023-10-09T10:05:41;12.15;;;5.10;;
20731;SDS011;10527;52.124;5.196;2023-10-09T10:08:16;7.15;;;4.40;;
20731;SDS011;10527;52.124;5.196;2023-10-09T10:10:48;8.35;;;4.47;;
20731;SDS011;10527;52.124;5.196;2023-10-09T10:16:12;8.32;;;4.30;;
20731;SDS011;10527;52.124;5.196;2023-10-09T10:18:53;10.38;;;3.75;;
20731;SDS011;10527;52.124;5.196;2023-10-09T10:21:57;9.68;;;4.30;;
20731;SDS011;10527;52.124;5.196;2023-10-09T10:24:58;7.45;;;4.05;;
20731;SDS011;10527;52.124;5.196;2023-10-09T10:27:35;9.02;;;3.80;;
20731;SDS011;10527;52.124;5.196;2023-10-09T10:32:53;7.30;;;4.00;;
20731;SDS011;10527;52.124;5.196;2023-10-09T10:35:24;8.95;;;4.95;;
20731;SDS011;10527;52.124;5.196;2023-10-09T10:38:24;11.38;;;4.13;;
20731;SDS011;10527;52.124;5.196;2023-10-09T10:41:08;10.38;;;4.40;;
20731;SDS011;10527;52.124;5.196;2023-10-09T10:43:40;11.20;;;4.30;;
20731;SDS011;10527;52.124;5.196;2023-10-09T10:46:16;7.35;;;3.83;;
20731;SDS011;10527;52.124;5.196;2023-10-09T10:48:51;5.78;;;3.50;;
20731;SDS011;10527;52.124;5.196;2023-10-09T10:51:42;6.22;;;3.70;;
20731;SDS011;10527;52.124;5.196;2023-10-09T10:54:31;11.75;;;5.05;;
20731;SDS011;10527;52.124;5.196;2023-10-09T10:56:59;8.45;;;3.45;;
20731;SDS011;10527;52.124;5.196;2023-10-09T10:59:30;7.25;;;3.53;;
20731;SDS011;10527;52.124;5.196;2023-10-09T11:02:09;7.35;;;4.00;;
20731;SDS011;10527;52.124;5.196;2023-10-09T11:04:40;7.00;;;3.95;;
20731;SDS011;10527;52.124;5.196;2023-10-09T11:07:09;9.07;;;4.30;;
20731;SDS011;10527;52.124;5.196;2023-10-09T11:09:45;7.95;;;4.45;;
20731;SDS011;10527;52.124;5.196;2023-10-09T11:18:13;8.18;;;3.67;;
20731;SDS011;10527;52.124;5.196;2023-10-09T11:20:53;9.77;;;4.05;;
20731;SDS011;10527;52.124;5.196;2023-10-09T11:23:43;6.95;;;3.83;;
20731;SDS011;10527;52.124;5.196;2023-10-09T11:26:17;10.77;;;4.80;;
20731;SDS011;10527;52.124;5.196;2023-10-09T11:29:05;12.07;;;4.18;;
20731;SDS011;10527;52.124;5.196;2023-10-09T11:31:59;8.40;;;3.45;;
20731;SDS011;10527;52.124;5.196;2023-10-09T11:34:32;8.45;;;3.75;;
20731;SDS011;10527;52.124;5.196;2023-10-09T11:37:03;7.70;;;4.50;;
20731;SDS011;10527;52.124;5.196;2023-10-09T11:39:42;7.03;;;3.45;;
20731;SDS011;10527;52.124;5.196;2023-10-09T11:42:23;6.90;;;3.70;;
20731;SDS011;10527;52.124;5.196;2023-10-09T11:45:23;7.35;;;3.78;;
20731;SDS011;10527;52.124;5.196;2023-10-09T11:48:17;8.77;;;4.10;;
20731;SDS011;10527;52.124;5.196;2023-10-09T11:51:19;7.03;;;3.85;;
20731;SDS011;10527;52.124;5.196;2023-10-09T11:53:48;9.93;;;4.05;;
20731;SDS011;10527;52.124;5.196;2023-10-09T11:56:16;8.80;;;4.07;;
20731;SDS011;10527;52.124;5.196;2023-10-09T11:58:49;7.00;;;3.65;;
20731;SDS011;10527;52.124;5.196;2023-10-09T12:01:19;7.78;;;3.85;;
20731;SDS011;10527;52.124;5.196;2023-10-09T12:03:49;8.25;;;3.65;;
20731;SDS011;10527;52.124;5.196;2023-10-09T12:06:18;10.27;;;3.53;;
20731;SDS011;10527;52.124;5.196;2023-10-09T12:08:50;10.68;;;3.97;;
20731;SDS011;10527;52.124;5.196;2023-10-09T12:11:18;11.50;;;3.75;;
20731;SDS011;10527;52.124;5.196;2023-10-09T12:13:57;9.07;;;3.70;;
20731;SDS011;10527;52.124;5.196;2023-10-09T12:16:27;6.25;;;3.50;;
20731;SDS011;10527;52.124;5.196;2023-10-09T12:18:55;8.00;;;3.97;;
20731;SDS011;10527;52.124;5.196;2023-10-09T12:21:23;11.18;;;4.88;;
20731;SDS011;10527;52.124;5.196;2023-10-09T12:23:54;7.95;;;4.03;;
20731;SDS011;10527;52.124;5.196;2023-10-09T12:26:26;9.55;;;4.55;;
20731;SDS011;10527;52.124;5.196;2023-10-09T12:28:54;8.02;;;3.40;;
20731;SDS011;10527;52.124;5.196;2023-10-09T12:31:24;7.45;;;3.58;;
20731;SDS011;10527;52.124;5.196;2023-10-09T12:33:53;4.95;;;3.20;;
20731;SDS011;10527;52.124;5.196;2023-10-09T12:36:20;7.50;;;3.55;;
20731;SDS011;10527;52.124;5.196;2023-10-09T12:38:48;7.68;;;3.20;;
20731;SDS011;10527;52.124;5.196;2023-10-09T12:41:19;7.97;;;3.83;;
20731;SDS011;10527;52.124;5.196;2023-10-09T12:43:55;7.25;;;3.75;;
20731;SDS011;10527;52.124;5.196;2023-10-09T12:46:25;10.10;;;3.83;;
20731;SDS011;10527;52.124;5.196;2023-10-09T12:48:54;6.13;;;3.30;;
20731;SDS011;10527;52.124;5.196;2023-10-09T12:51:22;8.65;;;3.50;;
20731;SDS011;10527;52.124;5.196;2023-10-09T12:53:56;8.27;;;3.70;;
20731;SDS011;10527;52.124;5.196;2023-10-09T12:56:24;7.57;;;4.15;;
20731;SDS011;10527;52.124;5.196;2023-10-09T12:59:05;9.73;;;4.13;;
20731;SDS011;10527;52.124;5.196;2023-10-09T13:01:34;10.50;;;3.83;;
20731;SDS011;10527;52.124;5.196;2023-10-09T13:04:14;8.98;;;4.55;;
20731;SDS011;10527;52.124;5.196;2023-10-09T13:06:43;7.60;;;3.50;;
20731;SDS011;10527;52.124;5.196;2023-10-09T13:09:12;8.15;;;3.40;;
20731;SDS011;10527;52.124;5.196;2023-10-09T13:11:42;7.25;;;3.78;;
20731;SDS011;10527;52.124;5.196;2023-10-09T13:14:10;8.15;;;3.38;;
20731;SDS011;10527;52.124;5.196;2023-10-09T13:16:48;7.47;;;4.07;;
20731;SDS011;10527;52.124;5.196;2023-10-09T13:19:19;10.02;;;4.00;;
20731;SDS011;10527;52.124;5.196;2023-10-09T13:21:50;8.63;;;3.58;;
20731;SDS011;10527;52.124;5.196;2023-10-09T13:24:18;9.45;;;3.85;;
20731;SDS011;10527;52.124;5.196;2023-10-09T13:26:56;8.50;;;3.53;;
20731;SDS011;10527;52.124;5.196;2023-10-09T13:29:27;6.80;;;3.28;;
20731;SDS011;10527;52.124;5.196;2023-10-09T13:32:00;6.72;;;3.30;;
20731;SDS011;10527;52.124;5.196;2023-10-09T13:34:30;6.57;;;3.42;;
20731;SDS011;10527;52.124;5.196;2023-10-09T13:36:59;9.55;;;3.80;;
20731;SDS011;10527;52.124;5.196;2023-10-09T13:39:37;7.50;;;3.72;;
20731;SDS011;10527;52.124;5.196;2023-10-09T13:42:07;10.15;;;3.95;;
20731;SDS011;10527;52.124;5.196;2023-10-09T13:44:35;9.73;;;4.22;;
20731;SDS011;10527;52.124;5.196;2023-10-09T13:47:08;9.43;;;3.80;;
20731;SDS011;10527;52.124;5.196;2023-10-09T13:49:49;7.95;;;3.42;;
20731;SDS011;10527;52.124;5.196;2023-10-09T13:52:20;6.20;;;3.30;;
20731;SDS011;10527;52.124;5.196;2023-10-09T13:54:48;8.68;;;3.30;;
20731;SDS011;10527;52.124;5.196;2023-10-09T13:57:16;7.50;;;3.70;;
20731;SDS011;10527;52.124;5.196;2023-10-09T13:59:43;9.43;;;3.33;;
20731;SDS011;10527;52.124;5.196;2023-10-09T14:02:17;9.77;;;3.65;;
20731;SDS011;10527;52.124;5.196;2023-10-09T14:04:47;6.53;;;3.50;;
20731;SDS011;10527;52.124;5.196;2023-10-09T14:07:15;9.52;;;4.40;;
20731;SDS011;10527;52.124;5.196;2023-10-09T14:09:43;9.23;;;4.28;;
20731;SDS011;10527;52.124;5.196;2023-10-09T14:12:34;8.13;;;3.38;;
20731;SDS011;10527;52.124;5.196;2023-10-09T14:15:06;10.38;;;4.00;;
20731;SDS011;10527;52.124;5.196;2023-10-09T14:20:22;9.80;;;4.30;;
20731;SDS011;10527;52.124;5.196;2023-10-09T14:23:00;10.98;;;3.65;;
20731;SDS011;10527;52.124;5.196;2023-10-09T14:25:33;10.20;;;4.32;;
20731;SDS011;10527;52.124;5.196;2023-10-09T14:28:06;7.55;;;3.95;;
20731;SDS011;10527;52.124;5.196;2023-10-09T14:30:35;9.35;;;4.22;;
20731;SDS011;10527;52.124;5.196;2023-10-09T14:33:10;11.10;;;4.07;;
20731;SDS011;10527;52.124;5.196;2023-10-09T14:35:48;6.35;;;3.40;;
20731;SDS011;10527;52.124;5.196;2023-10-09T14:38:18;15.73;;;4.93;;
20731;SDS011;10527;52.124;5.196;2023-10-09T14:40:53;11.10;;;3.80;;
20731;SDS011;10527;52.124;5.196;2023-10-09T14:43:26;8.68;;;3.60;;
20731;SDS011;10527;52.124;5.196;2023-10-09T14:46:00;6.53;;;3.55;;
20731;SDS011;10527;52.124;5.196;2023-10-09T14:48:27;10.32;;;4.25;;
20731;SDS011;10527;52.124;5.196;2023-10-09T14:50:55;6.80;;;4.80;;
20731;SDS011;10527;52.124;5.196;2023-10-09T14:53:31;7.90;;;4.13;;
20731;SDS011;10527;52.124;5.196;2023-10-09T14:56:03;8.55;;;3.58;;
20731;SDS011;10527;52.124;5.196;2023-10-09T14:58:37;7.75;;;3.40;;
20731;SDS011;10527;52.124;5.196;2023-10-09T15:01:08;6.32;;;3.85;;
20731;SDS011;10527;52.124;5.196;2023-10-09T15:03:39;8.00;;;4.00;;
20731;SDS011;10527;52.124;5.196;2023-10-09T15:06:08;8.95;;;3.80;;
20731;SDS011;10527;52.124;5.196;2023-10-09T15:08:37;8.13;;;3.90;;
20731;SDS011;10527;52.124;5.196;2023-10-09T15:11:06;6.97;;;3.22;;
20731;SDS011;10527;52.124;5.196;2023-10-09T15:13:33;6.72;;;3.75;;
20731;SDS011;10527;52.124;5.196;2023-10-09T15:16:01;8.38;;;3.60;;
20731;SDS011;10527;52.124;5.196;2023-10-09T15:18:31;9.18;;;3.97;;
20731;SDS011;10527;52.124;5.196;2023-10-09T15:21:03;10.90;;;4.28;;
20731;SDS011;10527;52.124;5.196;2023-10-09T15:23:32;8.23;;;3.95;;
20731;SDS011;10527;52.124;5.196;2023-10-09T15:26:00;11.68;;;4.00;;
20731;SDS011;10527;52.124;5.196;2023-10-09T15:28:28;8.73;;;4.13;;
20731;SDS011;10527;52.124;5.196;2023-10-09T15:31:01;10.63;;;4.22;;
20731;SDS011;10527;52.124;5.196;2023-10-09T15:33:30;7.13;;;4.07;;
20731;SDS011;10527;52.124;5.196;2023-10-09T15:36:08;9.02;;;4.45;;
20731;SDS011;10527;52.124;5.196;2023-10-09T15:38:40;9.95;;;4.03;;
20731;SDS011;10527;52.124;5.196;2023-10-09T15:41:07;9.25;;;4.45;;
20731;SDS011;10527;52.124;5.196;2023-10-09T15:43:35;10.65;;;4.88;;
20731;SDS011;10527;52.124;5.196;2023-10-09T15:46:06;8.10;;;4.07;;